Time;durP1;ratioP1;P1;durP2;ratioP2;P2;SDS_P1;SDS_P2;PMS_P1;PMS_P2;Temp;Humidity;BMP_temperature;BMP_pressure;BME280_temperature;BME280_humidity;BME280_pressure;Samples;Min_cycle;Max_cycle;Signal;HPM_P1;HPM_P2
2022/10/07 00:01:32;;;;;;;;;13.00;10.00;;;;;13.56;100.00;102538.44;5057811;28;54735;-71
2022/10/07 00:03:57;;;;;;;;;10.00;7.00;;;;;13.55;100.00;102535.75;5057829;28;45351;-71
2022/10/07 00:06:22;;;;;;;;;12.75;10.25;;;;;13.53;100.00;102535.72;5058046;28;46826;-71
2022/10/07 00:08:50;;;;;;;;;11.00;10.00;;;;;13.53;100.00;102529.50;5057557;28;46894;-70
2022/10/07 00:11:19;;;;;;;;;9.67;9.00;;;;;13.53;100.00;102534.78;5057837;28;45359;-71
2022/10/07 00:13:46;;;;;;;;;12.75;9.75;;;;;13.50;100.00;102530.31;5039771;28;45368;-71
2022/10/07 00:16:14;;;;;;;;;18.25;12.00;;;;;13.50;100.00;102527.66;5057612;28;46589;-71
2022/10/07 00:18:40;;;;;;;;;12.00;10.33;;;;;13.49;100.00;102532.94;5057112;28;45264;-70
2022/10/07 00:21:08;;;;;;;;;12.33;9.00;;;;;13.45;100.00;102521.34;5056209;28;45356;-71
2022/10/07 00:23:34;;;;;;;;;15.50;12.50;;;;;13.43;100.00;102519.53;5057562;28;45554;-71
2022/10/07 00:26:04;;;;;;;;;7.75;7.75;;;;;13.42;100.00;102520.34;5057471;28;47589;-71
2022/10/07 00:28:29;;;;;;;;;10.67;10.67;;;;;13.42;100.00;102521.25;5039092;28;45464;-70
2022/10/07 00:31:05;;;;;;;;;11.00;11.00;;;;;13.39;100.00;102518.53;5039775;28;45362;-70
2022/10/07 00:33:33;;;;;;;;;12.00;12.00;;;;;13.39;100.00;102525.59;5039435;28;45305;-71
2022/10/07 00:35:59;;;;;;;;;9.67;9.67;;;;;13.35;100.00;102519.31;5057552;28;46167;-71
2022/10/07 00:38:24;;;;;;;;;13.25;11.00;;;;;13.34;100.00;102512.19;5056628;28;45497;-71
2022/10/07 00:40:50;;;;;;;;;12.00;11.00;;;;;13.33;100.00;102510.41;5057067;28;52742;-71
2022/10/07 00:43:18;;;;;;;;;9.00;9.00;;;;;13.35;100.00;102511.34;5039770;28;45633;-71
2022/10/07 00:45:43;;;;;;;;;14.00;10.00;;;;;13.33;100.00;102507.75;5039122;28;47669;-70
2022/10/07 00:48:09;;;;;;;;;13.50;11.50;;;;;13.29;100.00;102505.88;5039044;28;58684;-71
2022/10/07 00:50:35;;;;;;;;;11.00;7.75;;;;;13.26;100.00;102504.06;5039047;28;52748;-71
2022/10/07 00:53:02;;;;;;;;;15.00;13.75;;;;;13.27;100.00;102516.47;5057305;28;45541;-70
2022/10/07 00:55:27;;;;;;;;;18.00;11.00;;;;;13.25;100.00;102510.19;5055977;28;46620;-71
2022/10/07 00:57:56;;;;;;;;;16.75;11.25;;;;;13.23;100.00;102503.06;5035576;28;56755;-71
2022/10/07 01:00:22;;;;;;;;;13.25;12.00;;;;;13.20;100.00;102497.63;5031457;28;45415;-71
2022/10/07 01:02:48;;;;;;;;;13.00;10.00;;;;;13.22;100.00;102495.97;5044339;28;45202;-71
2022/10/07 01:05:14;;;;;;;;;14.50;10.50;;;;;13.20;100.00;102493.22;5038831;28;47426;-71
2022/10/07 01:07:40;;;;;;;;;13.75;11.00;;;;;13.19;100.00;102493.19;5056515;28;45760;-70
2022/10/07 01:10:08;;;;;;;;;10.50;10.00;;;;;13.14;100.00;102487.75;5039019;28;45427;-71
2022/10/07 01:12:52;;;;;;;;;18.00;11.00;;;;;13.14;100.00;102487.75;5038578;28;45467;-71
2022/10/07 01:15:36;;;;;;;;;10.67;9.67;;;;;13.13;100.00;102477.13;5056586;28;47453;-70
2022/10/07 01:18:16;;;;;;;;;12.00;10.25;;;;;13.10;100.00;102481.50;5056734;28;45438;-70
2022/10/07 01:20:48;;;;;;;;;16.33;10.67;;;;;13.08;100.00;102485.84;5055164;28;45273;-71
2022/10/07 01:23:44;;;;;;;;;12.00;9.00;;;;;13.06;100.00;102474.31;5056793;28;45503;-71
2022/10/07 01:26:28;;;;;;;;;12.25;9.50;;;;;13.05;100.00;102467.22;5056713;28;46964;-70
2022/10/07 01:28:59;;;;;;;;;9.67;7.33;;;;;13.02;100.00;102466.22;5056737;28;45316;-71
2022/10/07 01:31:34;;;;;;;;;13.25;8.75;;;;;13.00;100.00;102466.19;5039036;28;45352;-71
2022/10/07 01:33:59;;;;;;;;;11.75;9.50;;;;;12.99;100.00;102466.13;5056956;28;45494;-70
2022/10/07 01:36:25;;;;;;;;;13.67;10.00;;;;;12.99;100.00;102466.13;5037838;28;54012;-70
2022/10/07 01:38:55;;;;;;;;;11.00;10.00;;;;;12.94;100.00;102459.78;5038578;28;45388;-71
2022/10/07 01:41:22;;;;;;;;;11.25;10.25;;;;;12.94;100.00;102454.50;5038527;28;45538;-70
2022/10/07 01:43:51;;;;;;;;;10.67;8.67;;;;;12.94;100.00;102452.72;5056455;28;45338;-71
2022/10/07 01:46:21;;;;;;;;;12.75;10.00;;;;;12.92;100.00;102445.59;5056266;28;46560;-71
2022/10/07 01:48:46;;;;;;;;;14.00;7.33;;;;;12.91;100.00;102450.00;5056335;28;45287;-71
2022/10/07 01:51:13;;;;;;;;;10.25;10.25;;;;;12.90;100.00;102448.22;5038303;28;45308;-71
2022/10/07 01:53:48;;;;;;;;;10.67;9.67;;;;;12.88;100.00;102446.38;5038331;28;45493;-70
2022/10/07 01:56:37;;;;;;;;;17.33;13.33;;;;;12.83;100.00;102439.19;5035117;28;46533;-70
2022/10/07 01:59:05;;;;;;;;;11.00;9.67;;;;;12.84;100.00;102434.81;5053673;28;45269;-70
2022/10/07 02:01:49;;;;;;;;;14.00;12.75;;;;;12.82;100.00;102433.84;5056261;28;45376;-71
2022/10/07 02:04:58;;;;;;;;;9.75;5.00;;;;;12.80;100.00;102435.56;5056231;28;45265;-70
2022/10/07 02:07:33;;;;;;;;;13.50;12.00;;;;;12.78;100.00;102426.66;4996545;28;46795;-70
2022/10/07 02:10:20;;;;;;;;;14.00;10.00;;;;;12.77;100.00;102422.22;5002884;28;45561;-70
2022/10/07 02:12:53;;;;;;;;;13.00;10.50;;;;;12.73;100.00;102412.38;5029539;28;45522;-70
2022/10/07 02:15:28;;;;;;;;;12.25;10.00;;;;;12.73;100.00;102412.38;5038886;28;45584;-71
2022/10/07 02:17:58;;;;;;;;;10.50;9.75;;;;;12.69;100.00;102403.47;5058385;28;46198;-72
2022/10/07 02:20:26;;;;;;;;;15.33;10.33;;;;;12.71;100.00;102406.16;5041600;28;45408;-71
2022/10/07 02:22:54;;;;;;;;;11.00;10.75;;;;;12.65;100.00;102396.28;5040059;28;45265;-71
2022/10/07 02:25:21;;;;;;;;;14.25;10.25;;;;;12.68;100.00;102404.34;5041650;28;45381;-71
2022/10/07 02:27:51;;;;;;;;;11.33;8.67;;;;;12.63;100.00;102395.34;5058720;28;62437;-71
2022/10/07 02:30:18;;;;;;;;;12.67;11.67;;;;;12.64;100.00;102398.91;5041471;28;45404;-70
2022/10/07 02:32:53;;;;;;;;;11.33;9.00;;;;;12.59;100.00;102389.06;5041562;28;45360;-71
2022/10/07 02:35:58;;;;;;;;;10.00;10.00;;;;;12.60;100.00;102387.31;5059493;28;45439;-70
2022/10/07 02:38:25;;;;;;;;;15.25;11.75;;;;;12.55;100.00;102384.53;5014032;28;46665;-71
2022/10/07 02:41:30;;;;;;;;;14.25;9.25;;;;;12.55;100.00;102381.88;5038117;28;45239;-70
2022/10/07 02:44:13;;;;;;;;;11.33;11.33;;;;;12.53;100.00;102380.94;5040675;28;45213;-70
2022/10/07 02:47:21;;;;;;;;;16.50;10.50;;;;;12.52;100.00;102371.22;5059706;28;45357;-70
2022/10/07 02:49:51;;;;;;;;;12.25;9.75;;;;;12.51;100.00;102374.69;5049017;28;45698;-71
2022/10/07 02:52:19;;;;;;;;;12.25;10.50;;;;;12.46;100.00;102363.06;5041022;28;45346;-71
2022/10/07 02:54:55;;;;;;;;;9.75;7.75;;;;;12.50;100.00;102374.66;5024928;28;45319;-70
2022/10/07 02:57:21;;;;;;;;;11.50;11.00;;;;;12.48;100.00;102350.78;5041539;28;45375;-70
2022/10/07 02:59:48;;;;;;;;;13.25;11.00;;;;;12.49;100.00;102356.97;5041214;28;45785;-71
2022/10/07 03:02:22;;;;;;;;;12.25;10.25;;;;;12.48;100.00;102369.31;5058820;28;45157;-71
2022/10/07 03:04:48;;;;;;;;;10.00;10.00;;;;;12.47;100.00;102359.59;5041222;28;45249;-71
2022/10/07 03:07:13;;;;;;;;;8.67;7.00;;;;;12.46;100.00;102362.16;5057860;28;51195;-71
2022/10/07 03:09:40;;;;;;;;;11.00;9.00;;;;;12.44;100.00;102362.13;5036181;28;65512;-71
2022/10/07 03:12:07;;;;;;;;;13.75;10.50;;;;;12.45;100.00;102366.56;5052017;28;45324;-71
2022/10/07 03:14:34;;;;;;;;;9.25;7.50;;;;;12.42;100.00;102360.31;5058506;28;45403;-70
2022/10/07 03:17:00;;;;;;;;;13.00;9.00;;;;;12.40;100.00;102351.41;5041059;28;45356;-70
2022/10/07 03:19:25;;;;;;;;;14.33;10.00;;;;;12.39;100.00;102350.53;5057249;28;47129;-70
2022/10/07 03:21:52;;;;;;;;;15.50;8.50;;;;;12.38;100.00;102343.44;5058333;28;45135;-71
2022/10/07 03:24:18;;;;;;;;;10.50;9.75;;;;;12.35;100.00;102347.75;5058474;28;45296;-70
2022/10/07 03:26:43;;;;;;;;;9.00;9.00;;;;;12.36;100.00;102350.44;5041029;28;45331;-71
2022/10/07 03:29:09;;;;;;;;;12.33;9.00;;;;;12.32;100.00;102340.63;5057711;28;60660;-71
2022/10/07 03:31:35;;;;;;;;;10.67;9.67;;;;;12.34;100.00;102352.13;5058471;28;45621;-71
2022/10/07 03:34:00;;;;;;;;;13.00;8.67;;;;;12.28;100.00;102334.31;5040268;28;45485;-71
2022/10/07 03:36:26;;;;;;;;;12.75;9.75;;;;;12.30;100.00;102339.66;5058282;28;46169;-71
2022/10/07 03:38:51;;;;;;;;;6.50;6.50;;;;;12.28;100.00;102339.63;5040201;28;46428;-71
2022/10/07 03:41:18;;;;;;;;;11.33;9.67;;;;;12.27;100.00;102340.47;5058024;28;45778;-71
2022/10/07 03:43:43;;;;;;;;;9.25;8.00;;;;;12.25;100.00;102331.63;5040211;28;45492;-71
2022/10/07 03:46:09;;;;;;;;;10.00;7.00;;;;;12.24;100.00;102331.53;5040960;28;45265;-70
2022/10/07 03:48:34;;;;;;;;;9.00;8.00;;;;;12.20;100.00;102325.28;5057893;28;52005;-70
2022/10/07 03:50:59;;;;;;;;;11.25;7.75;;;;;12.21;100.00;102334.13;5058297;28;45217;-70
2022/10/07 03:53:26;;;;;;;;;13.25;7.25;;;;;12.20;100.00;102341.19;5058449;28;45363;-70
2022/10/07 03:55:51;;;;;;;;;10.00;7.33;;;;;12.18;100.00;102334.03;5057989;28;45518;-71
2022/10/07 03:58:17;;;;;;;;;11.33;8.33;;;;;12.16;100.00;102334.00;5040224;28;45689;-71
2022/10/07 04:00:42;;;;;;;;;9.25;5.75;;;;;12.16;100.00;102331.34;5039259;28;60981;-71
2022/10/07 04:03:08;;;;;;;;;11.33;8.00;;;;;12.15;100.00;102331.31;5057802;28;57375;-71
2022/10/07 04:05:35;;;;;;;;;11.00;8.00;;;;;12.14;100.00;102327.72;5057696;28;45314;-71
2022/10/07 04:08:00;;;;;;;;;9.00;6.33;;;;;12.14;100.00;102329.47;5057759;28;46489;-71
2022/10/07 04:10:25;;;;;;;;;11.50;7.50;;;;;12.06;100.00;102319.59;5057973;28;46588;-71
2022/10/07 04:12:51;;;;;;;;;8.00;5.00;;;;;12.08;100.00;102324.91;5039727;28;45307;-70
2022/10/07 04:15:17;;;;;;;;;8.50;8.00;;;;;12.09;100.00;102324.09;5058398;28;45291;-70
2022/10/07 04:17:44;;;;;;;;;6.50;6.50;;;;;12.06;100.00;102319.59;5057400;28;46440;-70
2022/10/07 04:20:10;;;;;;;;;7.00;6.25;;;;;12.06;100.00;102318.69;5057100;28;45390;-71
2022/10/07 04:22:36;;;;;;;;;7.50;6.75;;;;;12.04;100.00;102320.41;5057170;28;45222;-71
2022/10/07 04:27:57;;;;;;;;;7.00;7.00;;;;;12.01;100.00;102321.19;5042048;28;45573;-70
2022/10/07 04:30:25;;;;;;;;;9.00;5.00;;;;;11.98;100.00;102318.44;5039084;28;45409;-71
2022/10/07 04:32:51;;;;;;;;;7.50;6.25;;;;;11.97;100.00;102311.38;5057713;28;45296;-70
2022/10/07 04:35:17;;;;;;;;;11.25;6.00;;;;;11.97;100.00;102319.31;5057663;28;45432;-70
2022/10/07 04:37:42;;;;;;;;;5.00;5.00;;;;;11.96;100.00;102317.53;5056750;28;46629;-70
2022/10/07 04:40:09;;;;;;;;;8.00;5.00;;;;;11.97;100.00;102314.00;5057255;28;45304;-70
2022/10/07 04:45:18;;;;;;;;;10.75;7.00;;;;;11.93;100.00;102308.59;5056835;28;45343;-71
2022/10/07 04:47:44;;;;;;;;;9.25;8.00;;;;;11.89;100.00;102304.06;5057311;28;46438;-71
2022/10/07 04:50:09;;;;;;;;;8.33;5.33;;;;;11.89;100.00;102304.97;5056329;28;45549;-70
2022/10/07 04:52:38;;;;;;;;;7.00;5.00;;;;;11.92;100.00;102309.44;5056588;28;45661;-70
2022/10/07 04:55:04;;;;;;;;;8.00;5.75;;;;;11.87;100.00;102298.72;5055185;28;45664;-69
2022/10/07 04:57:30;;;;;;;;;10.75;5.25;;;;;11.88;100.00;102305.84;5056885;28;45684;-69
2022/10/07 04:59:55;;;;;;;;;8.00;6.00;;;;;11.87;100.00;102295.19;5055655;28;56119;-69
2022/10/07 05:02:20;;;;;;;;;10.00;7.75;;;;;11.87;100.00;102304.00;5052535;28;53807;-70
2022/10/07 05:04:46;;;;;;;;;8.50;8.00;;;;;11.84;100.00;102298.66;5056346;28;45346;-69
2022/10/07 05:07:11;;;;;;;;;8.50;6.75;;;;;11.85;100.00;102294.25;5054618;28;64168;-69
2022/10/07 05:09:36;;;;;;;;;9.00;6.25;;;;;11.84;100.00;102303.94;5056295;28;45320;-69
2022/10/07 05:12:02;;;;;;;;;8.50;8.50;;;;;11.80;100.00;102299.38;5055903;28;59257;-69
2022/10/07 05:14:27;;;;;;;;;13.75;11.25;;;;;11.78;100.00;102296.69;5056351;28;51920;-70
2022/10/07 05:16:52;;;;;;;;;11.50;10.00;;;;;11.79;100.00;102303.75;5055367;28;59454;-69
2022/10/07 05:19:18;;;;;;;;;11.25;9.00;;;;;11.78;100.00;102303.72;5056292;28;45457;-70
2022/10/07 05:21:44;;;;;;;;;8.25;7.25;;;;;11.75;100.00;102300.97;5056217;28;45352;-70
2022/10/07 05:24:10;;;;;;;;;8.75;8.25;;;;;11.74;100.00;102292.16;5046058;28;45332;-69
2022/10/07 05:26:35;;;;;;;;;13.50;8.00;;;;;11.76;100.00;102286.88;5053317;28;61902;-70
2022/10/07 05:29:02;;;;;;;;;9.00;8.75;;;;;11.75;100.00;102288.66;5041458;28;50023;-69
2022/10/07 05:31:27;;;;;;;;;9.25;7.25;;;;;11.72;100.00;102285.03;5054631;28;45470;-69
2022/10/07 05:33:53;;;;;;;;;11.75;8.75;;;;;11.73;100.00;102300.03;5052359;28;45955;-69
2022/10/07 05:36:21;;;;;;;;;8.00;7.75;;;;;11.72;100.00;102299.16;5036063;28;63625;-69
2022/10/07 05:38:46;;;;;;;;;8.00;4.75;;;;;11.71;100.00;102294.69;5037977;28;45589;-69
2022/10/07 05:41:12;;;;;;;;;9.50;8.75;;;;;11.70;100.00;102290.25;5054688;28;45460;-69
2022/10/07 05:43:41;;;;;;;;;8.00;5.25;;;;;11.67;100.00;102287.53;5055513;28;45414;-70
2022/10/07 05:46:11;;;;;;;;;8.33;8.33;;;;;11.67;100.00;102284.00;5048952;28;46656;-70
2022/10/07 05:48:38;;;;;;;;;11.00;7.00;;;;;11.68;100.00;102288.44;5047758;28;45880;-69
2022/10/07 05:51:04;;;;;;;;;8.25;7.00;;;;;11.66;100.00;102290.09;5050135;28;45529;-69
2022/10/07 05:53:30;;;;;;;;;8.00;7.00;;;;;11.64;100.00;102278.59;5034679;28;45605;-70
2022/10/07 05:55:55;;;;;;;;;8.25;5.25;;;;;11.65;100.00;102285.69;5055733;28;46668;-69
2022/10/07 05:58:21;;;;;;;;;8.00;5.25;;;;;11.63;100.00;102287.41;5056196;28;45351;-69
2022/10/07 06:00:54;;;;;;;;;12.25;8.50;;;;;11.63;100.00;102284.75;5056041;28;45344;-70
2022/10/07 06:03:20;;;;;;;;;8.25;3.75;;;;;11.62;100.00;102289.16;5029702;28;45423;-69
2022/10/07 06:05:46;;;;;;;;;7.00;7.00;;;;;11.64;100.00;102284.78;5053983;28;45648;-69
2022/10/07 06:08:12;;;;;;;;;8.75;7.75;;;;;11.62;100.00;102288.25;5048775;28;46559;-69
2022/10/07 06:13:22;;;;;;;;;8.00;7.50;;;;;11.62;100.00;102280.31;5047778;28;45732;-70
2022/10/07 06:15:51;;;;;;;;;7.75;7.75;;;;;11.60;100.00;102282.88;5048313;28;46494;-68
2022/10/07 06:18:16;;;;;;;;;12.00;7.00;;;;;11.61;100.00;102283.78;5050589;28;47275;-69
2022/10/07 06:20:41;;;;;;;;;15.50;9.00;;;;;11.60;100.00;102282.88;5048155;28;53552;-69
2022/10/07 06:23:07;;;;;;;;;9.00;7.67;;;;;11.61;100.00;102283.78;5032414;28;55979;-70
2022/10/07 06:25:33;;;;;;;;;12.75;9.00;;;;;11.64;100.00;102286.53;5049777;28;61964;-69
2022/10/07 06:28:00;;;;;;;;;8.00;8.00;;;;;11.63;100.00;102275.06;5051045;28;45582;-69
2022/10/07 06:30:25;;;;;;;;;13.50;8.75;;;;;11.62;100.00;102278.56;5050600;28;45585;-69
2022/10/07 06:32:51;;;;;;;;;8.50;8.50;;;;;11.64;100.00;102276.84;5052684;28;45499;-69
2022/10/07 06:35:16;;;;;;;;;7.75;7.75;;;;;11.65;100.00;102289.22;5035653;28;47548;-71
2022/10/07 06:37:41;;;;;;;;;15.75;10.25;;;;;11.65;100.00;102283.03;5036055;28;45482;-70
2022/10/07 06:40:07;;;;;;;;;12.25;10.00;;;;;11.68;100.00;102281.38;5050966;28;48554;-69
2022/10/07 06:42:32;;;;;;;;;14.75;9.75;;;;;11.70;100.00;102281.41;5052163;28;45965;-69
2022/10/07 06:44:58;;;;;;;;;9.75;8.25;;;;;11.74;100.00;102284.22;5034342;28;46666;-70
2022/10/07 06:47:23;;;;;;;;;11.25;9.00;;;;;11.77;100.00;102284.31;5051618;28;58002;-70
2022/10/07 06:49:49;;;;;;;;;13.50;8.50;;;;;11.80;100.00;102283.50;5052740;28;45306;-72
2022/10/07 06:52:14;;;;;;;;;10.50;8.50;;;;;11.83;100.00;102280.97;5035718;28;45406;-70
2022/10/07 06:54:40;;;;;;;;;8.25;7.75;;;;;11.81;100.00;102277.34;5056947;28;46380;-70
2022/10/07 06:57:05;;;;;;;;;14.00;10.75;;;;;11.88;100.00;102286.38;5034823;28;45566;-70
2022/10/07 06:59:31;;;;;;;;;14.00;11.50;;;;;11.92;100.00;102293.56;5033070;28;56773;-70
2022/10/07 07:01:56;;;;;;;;;14.50;11.00;;;;;11.94;100.00;102286.59;5051216;28;45467;-70
2022/10/07 07:04:23;;;;;;;;;10.75;10.00;;;;;11.96;100.00;102283.13;5054170;28;46628;-70
2022/10/07 07:06:48;;;;;;;;;11.50;9.25;;;;;12.02;100.00;102290.31;5051942;28;45471;-70
2022/10/07 07:09:14;;;;;;;;;15.00;12.00;;;;;12.05;100.00;102295.72;5055193;28;45376;-71
2022/10/07 07:11:42;;;;;;;;;16.25;12.50;;;;;12.09;100.00;102294.03;5052338;28;45416;-71
2022/10/07 07:14:10;;;;;;;;;18.00;14.50;;;;;12.10;100.00;102288.81;5053080;28;45442;-71
2022/10/07 07:16:36;;;;;;;;;12.00;11.25;;;;;12.16;100.00;102290.72;5034393;28;45527;-71
2022/10/07 07:19:07;;;;;;;;;16.50;13.75;;;;;12.19;100.00;102291.69;5051252;28;45528;-71
2022/10/07 07:21:34;;;;;;;;;15.00;14.00;;;;;12.23;100.00;102279.44;5051802;28;45420;-71
2022/10/07 07:24:00;;;;;;;;;16.75;15.00;;;;;12.28;100.00;102281.34;5051379;28;46633;-70
2022/10/07 07:26:29;;;;;;;;;20.75;17.25;;;;;12.30;100.00;102273.44;5053708;28;45499;-70
2022/10/07 07:29:00;;;;;;;;;16.25;13.50;;;;;12.36;100.00;102268.34;5054714;28;45636;-71
2022/10/07 07:31:27;;;;;;;;;23.50;15.75;;;;;12.43;100.00;102274.69;5056867;28;45566;-71
2022/10/07 07:33:59;;;;;;;;;21.00;17.75;;;;;12.44;100.00;102269.41;5055250;28;45701;-71
2022/10/07 07:36:25;;;;;;;;;28.00;19.00;;;;;12.48;100.00;102270.41;5057390;28;45529;-70
2022/10/07 07:38:58;;;;;;;;;19.75;19.25;;;;;12.52;100.00;102261.69;5054782;28;45484;-70
2022/10/07 07:41:29;;;;;;;;;23.75;17.00;;;;;12.58;100.00;102268.03;5055772;28;45328;-70
2022/10/07 07:43:56;;;;;;;;;17.00;14.00;;;;;12.62;100.00;102266.34;5056684;28;46979;-70
2022/10/07 07:46:24;;;;;;;;;21.25;16.50;;;;;12.69;100.00;102263.00;5055104;28;45566;-70
2022/10/07 07:48:50;;;;;;;;;18.00;16.50;;;;;12.73;100.00;102262.25;5055684;28;45874;-70
2022/10/07 07:51:17;;;;;;;;;23.00;15.50;;;;;12.76;100.00;102264.94;5055374;28;45462;-71
2022/10/07 07:53:43;;;;;;;;;20.25;15.75;;;;;12.79;100.00;102254.44;5052220;28;45945;-70
2022/10/07 07:56:09;;;;;;;;;19.00;17.25;;;;;12.88;100.00;102263.44;5055813;28;45477;-71
2022/10/07 07:58:35;;;;;;;;;22.75;19.00;;;;;12.93;100.00;102275.97;5036430;28;45403;-71
2022/10/07 08:01:05;;;;;;;;;22.50;21.00;;;;;12.96;100.00;102262.78;5056110;28;56828;-70
2022/10/07 08:03:32;;;;;;;;;23.00;19.50;;;;;13.02;100.00;102260.28;5054900;28;47543;-70
2022/10/07 08:06:01;;;;;;;;;20.00;16.75;;;;;13.10;100.00;102257.78;5055274;28;45323;-70
2022/10/07 08:08:26;;;;;;;;;22.00;20.00;;;;;13.15;100.00;102252.59;5055789;28;45542;-71
2022/10/07 08:10:52;;;;;;;;;24.50;18.50;;;;;13.22;100.00;102255.50;5037819;28;45645;-71
2022/10/07 08:13:17;;;;;;;;;20.50;19.25;;;;;13.26;100.00;102252.06;5055712;28;57647;-70
2022/10/07 08:15:42;;;;;;;;;25.00;21.00;;;;;13.34;100.00;102260.16;5055647;28;57544;-71
2022/10/07 08:18:08;;;;;;;;;23.00;20.50;;;;;13.38;100.00;102253.19;5055333;28;53142;-70
2022/10/07 08:20:35;;;;;;;;;23.50;19.25;;;;;13.44;100.00;102254.22;5055600;28;45629;-71
2022/10/07 08:23:05;;;;;;;;;21.50;19.50;;;;;13.49;100.00;102247.25;5053584;28;45766;-70
2022/10/07 08:25:30;;;;;;;;;23.50;21.75;;;;;13.54;100.00;102245.59;5055317;28;45487;-70
2022/10/07 08:27:56;;;;;;;;;23.50;20.25;;;;;13.60;100.00;102239.50;5053113;28;46066;-70
2022/10/07 08:30:22;;;;;;;;;27.00;23.25;;;;;13.68;100.00;102247.63;5057819;28;45977;-71
2022/10/07 08:32:48;;;;;;;;;23.00;21.50;;;;;13.73;100.00;102238.00;5034941;28;45546;-70
2022/10/07 08:35:13;;;;;;;;;23.75;21.00;;;;;13.79;100.00;102236.34;5054913;28;61657;-70
2022/10/07 08:37:38;;;;;;;;;18.25;17.00;;;;;13.86;100.00;102237.41;5055116;28;58133;-71
2022/10/07 08:40:04;;;;;;;;;25.75;19.50;;;;;13.93;100.00;102235.75;5055520;28;54911;-71
2022/10/07 08:42:36;;;;;;;;;26.25;22.75;;;;;13.99;100.00;102230.56;5055316;28;46590;-70
2022/10/07 08:45:02;;;;;;;;;25.50;23.00;;;;;14.04;100.00;102226.22;5036961;28;45519;-71
2022/10/07 08:47:43;;;;;;;;;26.75;23.50;;;;;14.08;100.00;102217.47;5055052;28;47119;-71
2022/10/07 08:50:18;;;;;;;;;26.00;22.50;;;;;14.13;100.00;102203.41;5041231;28;45471;-71
2022/10/07 08:52:49;;;;;;;;;23.75;21.00;;;;;14.22;100.00;102215.97;5055169;28;45763;-70
2022/10/07 08:55:30;;;;;;;;;28.50;21.25;;;;;14.29;100.00;102212.53;5053780;28;45527;-70
2022/10/07 08:58:19;;;;;;;;;23.75;20.00;;;;;14.35;100.00;102214.41;5056353;28;45391;-70
2022/10/07 09:01:07;;;;;;;;;25.75;20.75;;;;;14.40;100.00;102205.66;5054014;28;45482;-70
2022/10/07 09:03:35;;;;;;;;;28.50;22.50;;;;;14.47;100.00;102209.34;5033485;28;47472;-70
2022/10/07 09:06:12;;;;;;;;;26.25;21.50;;;;;14.50;100.00;102204.09;5055463;28;45449;-70
2022/10/07 09:08:43;;;;;;;;;23.50;19.25;;;;;14.54;100.00;102197.94;5035399;28;45360;-70
2022/10/07 09:11:14;;;;;;;;;26.25;19.50;;;;;14.64;100.00;102204.28;5037452;28;45503;-70
2022/10/07 09:13:46;;;;;;;;;28.50;22.25;;;;;14.70;100.00;102201.75;5037418;28;45600;-70
2022/10/07 09:16:19;;;;;;;;;24.75;20.25;;;;;14.76;100.00;102192.97;5036956;28;45349;-70
2022/10/07 09:18:49;;;;;;;;;7.00;6.00;;;;;14.81;100.00;102191.28;5036380;28;45506;-70
2022/10/07 09:21:18;;;;;;;;;9.67;5.67;;;;;14.86;100.00;102187.81;5055734;28;45550;-71
2022/10/07 09:23:45;;;;;;;;;5.33;4.00;;;;;14.92;100.00;102179.03;5055434;28;46097;-71
2022/10/07 09:26:15;;;;;;;;;5.00;3.00;;;;;14.98;100.00;102171.16;5055745;28;46000;-71
2022/10/07 09:28:41;;;;;;;;;3.00;3.00;;;;;15.05;100.00;102175.66;5055647;28;45512;-71
2022/10/07 09:31:06;;;;;;;;;4.00;3.00;;;;;15.11;100.00;102159.78;5054658;28;58549;-70
2022/10/07 09:33:38;;;;;;;;;4.67;3.67;;;;;15.19;100.00;102168.78;5036769;28;47374;-70
2022/10/07 09:36:06;;;;;;;;;6.67;3.00;;;;;15.26;100.00;102168.88;5038155;28;45554;-71
2022/10/07 09:38:40;;;;;;;;;3.33;2.00;;;;;15.32;100.00;102151.19;5055577;28;45395;-70
2022/10/07 09:41:18;;;;;;;;;4.00;4.00;;;;;15.40;100.00;102154.88;5054399;28;45677;-69
2022/10/07 09:44:11;;;;;;;;;4.00;3.00;;;;;15.49;100.00;102159.38;5054787;28;45513;-71
2022/10/07 09:46:58;;;;;;;;;3.67;3.67;;;;;15.56;100.00;102152.38;5055560;28;45518;-70
2022/10/07 09:49:26;;;;;;;;;3.33;2.67;;;;;15.62;100.00;102148.03;5055174;28;45370;-71
2022/10/07 09:52:09;;;;;;;;;5.00;2.33;;;;;15.68;100.00;102147.22;5055744;28;45542;-71
2022/10/07 09:54:35;;;;;;;;;3.33;3.00;;;;;15.75;100.00;102138.41;5036441;28;46472;-71
2022/10/07 09:57:03;;;;;;;;;10.00;8.67;;;;;15.81;100.00;102132.25;5037421;28;45485;-70
2022/10/07 09:59:39;;;;;;;;;13.67;5.33;;;;;15.87;100.00;102127.91;5055059;28;45270;-70
2022/10/07 10:02:13;;;;;;;;;6.33;5.00;;;;;15.93;100.00;102129.75;5035273;28;45404;-71
2022/10/07 10:04:51;;;;;;;;;3.33;3.33;;;;;15.94;100.00;102119.09;5054775;28;45893;-71
2022/10/07 10:07:17;;;;;;;;;3.33;3.33;;;;;16.02;100.00;102115.59;5055230;28;45538;-70
2022/10/07 10:09:51;;;;;;;;;6.33;3.33;;;;;16.07;100.00;102111.19;5036832;28;45462;-71
2022/10/07 10:12:18;;;;;;;;;6.67;4.00;;;;;16.10;100.00;102120.13;5053978;28;45594;-70
2022/10/07 10:14:46;;;;;;;;;4.33;2.33;;;;;16.15;100.00;102107.75;5054807;28;47372;-71
2022/10/07 10:17:33;;;;;;;;;3.00;2.00;;;;;16.24;100.00;102105.16;5053679;28;45467;-72
2022/10/07 10:20:29;;;;;;;;;4.33;3.00;;;;;16.32;100.00;102099.88;5054558;28;45455;-70
2022/10/07 10:22:56;;;;;;;;;6.00;2.00;;;;;16.37;100.00;102099.91;5036984;28;45475;-70
2022/10/07 10:28:35;;;;;;;;;3.33;2.67;;;;;16.51;100.00;102100.88;5054929;28;45590;-71
2022/10/07 10:31:08;;;;;;;;;5.00;2.67;;;;;16.57;100.00;102094.72;5058308;28;45469;-71
2022/10/07 10:33:56;;;;;;;;;5.67;3.00;;;;;16.61;100.00;102089.38;5051079;28;47207;-71
2022/10/07 10:36:22;;;;;;;;;2.00;2.00;;;;;16.67;100.00;102084.13;5056750;28;45844;-71
2022/10/07 10:39:19;;;;;;;;;9.00;3.00;;;;;16.74;100.00;102085.97;5038800;28;45813;-71
2022/10/07 10:41:50;;;;;;;;;3.00;3.00;;;;;16.82;100.00;102079.78;5050339;28;45537;-71
2022/10/07 10:44:34;;;;;;;;;2.33;1.00;;;;;16.91;100.00;102077.16;5040684;28;45297;-71
2022/10/07 10:47:32;;;;;;;;;5.33;2.00;;;;;16.91;100.00;102062.03;5056974;28;46435;-71
2022/10/07 10:50:20;;;;;;;;;6.00;3.00;;;;;17.02;100.00;102067.41;5039482;28;45662;-72
2022/10/07 10:52:55;;;;;;;;;6.00;2.00;;;;;17.07;100.00;102068.34;5057208;28;45510;-73
2022/10/07 10:55:55;;;;;;;;;3.67;1.67;;;;;17.11;100.00;102061.25;5058950;28;45350;-72
2022/10/07 10:58:53;;;;;;;;;1.00;1.00;;;;;17.19;100.00;102059.47;5056243;28;45477;-72
2022/10/07 11:01:35;;;;;;;;;4.67;2.00;;;;;17.25;100.00;102067.50;5052739;28;45445;-73
2022/10/07 11:04:15;;;;;;;;;1.00;1.00;;;;;17.33;100.00;102056.84;5054759;28;45348;-72
2022/10/07 11:06:45;;;;;;;;;1.00;1.00;;;;;17.37;100.00;102045.31;5059068;28;45517;-72
2022/10/07 11:09:16;;;;;;;;;2.33;2.00;;;;;17.40;100.00;102042.63;5040267;28;45740;-72
2022/10/07 11:11:42;;;;;;;;;4.00;1.00;;;;;17.44;100.00;102039.09;5042687;28;45449;-72
2022/10/07 11:14:19;;;;;;;;;2.00;1.00;;;;;17.50;100.00;102039.97;5040824;28;45505;-72
2022/10/07 11:16:50;;;;;;;;;3.00;1.00;;;;;17.53;100.00;102031.09;5040669;28;45480;-72
2022/10/07 11:19:28;;;;;;;;;4.00;1.00;;;;;17.60;100.00;102029.31;5039079;28;46846;-72
2022/10/07 11:21:56;;;;;;;;;2.00;2.00;;;;;17.63;100.00;102023.97;5057250;28;45371;-72
2022/10/07 11:24:31;;;;;;;;;4.33;1.67;;;;;17.70;100.00;102023.09;5057661;28;45519;-72
2022/10/07 11:27:13;;;;;;;;;3.00;1.67;;;;;17.73;100.00;102020.44;5039415;28;45609;-72
2022/10/07 11:29:42;;;;;;;;;3.00;3.00;;;;;17.79;100.00;102021.34;5039471;28;47822;-72
2022/10/07 11:32:16;;;;;;;;;2.00;0.67;;;;;17.82;100.00;102014.22;5057620;28;45386;-72
2022/10/07 11:34:55;;;;;;;;;1.00;1.00;;;;;17.90;100.00;102012.47;5057830;28;45556;-72